Tuesday, April 24, 2018, 4:20 AM EDT
Back to Local

KSFZ, Pawtucket, North Central State Airport

Location: Smithfield, RI, United States Lat: 41.917
Local Time: 4:20 AM EDT ( 8:20 GMT) Lon: -71.5
Time Zone: US/Eastern Elev: 439 ft

Show me the last for .
Show Coded

Time T Td Feel RH Dir Speed Gust Alt SLP Vis Weather Sky Remarks
2018-04-24 03:56 37 31 - 78 - - - 30.41 30.25 10 CLR None
2018-04-24 02:56 38 29 - 69 - - - 30.41 30.25 10 CLR None
2018-04-24 01:56 39 28 - 64 - - - 30.42 30.27 10 CLR 6-hr Min Temp (2am): 37.9°F
6-hr Max Temp (2am): 50.0°F
2018-04-24 00:56 41 25 - 52 - - - 30.43 30.28 10 CLR 24-hr Min Temp (1am): 39.0°F
24-hr Max Temp (1am): 66.9°F
2018-04-23 23:56 40 22 - 48 - - - 30.45 30.29 10 CLR None
2018-04-23 22:56 44 19 - 36 - - - 30.44 30.28 10 CLR None
2018-04-23 21:56 45 20 - 36 - - - 30.46 30.30 10 CLR None
2018-04-23 20:56 48 20 - 32 - - - 30.45 30.29 10 CLR None
2018-04-23 19:56 50 23 - 34 - - - 30.44 30.28 10 CLR 6-hr Min Temp (8pm): 50.0°F
6-hr Max Temp (8pm): 66.9°F
2018-04-23 18:56 54 24 - 31 - - - 30.43 30.27 10 CLR None
2018-04-23 17:56 57 24 - 27 - - - 30.42 30.27 10 CLR None
2018-04-23 16:56 60 21 - 21 - - - 30.42 30.26 10 CLR None
2018-04-23 15:56 66 18 - 15 - - - 30.41 30.25 10 CLR None
2018-04-23 14:56 64 15 - 14 - - - 30.43 30.27 10 CLR None
2018-04-23 13:56 63 15 - 15 - - - 30.45 30.29 10 CLR 6-hr Min Temp (2pm): 48.0°F
6-hr Max Temp (2pm): 64.0°F
2018-04-23 12:56 61 16 - 17 - - - 30.46 30.30 10 CLR None
2018-04-23 11:56 59 16 - 18 - - - 30.48 30.32 10 CLR None
2018-04-23 10:56 57 17 - 20 - - - 30.50 30.34 10 CLR None
2018-04-23 09:56 54 18 - 23 - - - 30.50 30.34 10 CLR None
2018-04-23 08:56 52 20 - 28 - - - 30.50 30.34 10 CLR None
2018-04-23 07:56 48 20 - 32 - - - 30.49 30.33 10 CLR 6-hr Min Temp (8am): 39.0°F
6-hr Max Temp (8am): 48.0°F
2018-04-23 06:56 43 18 - 36 - - - 30.48 30.32 10 CLR None
2018-04-23 05:56 39 16 - 38 - - - 30.45 30.29 10 CLR None
2018-04-23 04:56 41 16 - 35 - - - 30.44 30.28 10 CLR None

Support USWX by starting your Amazon purchase here.